createdAt,value
2019-06-08T00:03:22.644Z,99.90
2019-06-08T00:08:33.204Z,99.90
2019-06-08T00:13:41.334Z,99.90
2019-06-08T00:18:48.655Z,99.90
2019-06-08T00:23:55.952Z,99.90
2019-06-08T00:29:03.580Z,99.90
2019-06-08T00:34:10.897Z,99.90
2019-06-08T00:39:18.853Z,99.90
2019-06-08T00:44:33.662Z,99.90
2019-06-08T00:49:43.713Z,99.90
2019-06-08T00:54:53.018Z,99.90
2019-06-08T01:00:00.189Z,99.90
2019-06-08T01:05:09.092Z,99.90
2019-06-08T01:10:16.829Z,99.90
2019-06-08T01:26:37.644Z,99.90
2019-06-08T01:32:03.395Z,99.90
2019-06-08T01:37:17.899Z,99.80
2019-06-08T01:42:35.565Z,99.60
2019-06-08T01:47:47.293Z,99.30
2019-06-08T01:58:19.322Z,98.70
2019-06-08T02:09:15.919Z,98.70
2019-06-08T02:25:23.376Z,97.50
2019-06-08T02:30:42.080Z,98.30
2019-06-08T02:41:16.751Z,98.10
2019-06-08T02:46:40.134Z,97.70
2019-06-08T02:52:04.830Z,97.00
2019-06-08T02:57:29.167Z,97.30
2019-06-08T03:02:42.419Z,96.80
2019-06-08T03:08:08.221Z,96.00
2019-06-08T03:13:16.795Z,96.20
2019-06-08T03:18:33.699Z,95.00
2019-06-08T03:23:44.183Z,95.70
2019-06-08T03:28:51.593Z,95.40
2019-06-08T03:33:59.130Z,94.80
2019-06-08T03:39:08.660Z,94.80
2019-06-08T03:44:17.432Z,95.40
2019-06-08T03:49:40.254Z,94.70
2019-06-08T03:54:33.412Z,95.30
2019-06-08T03:59:43.188Z,95.70
2019-06-08T04:04:50.034Z,94.40
2019-06-08T04:09:57.497Z,94.40
2019-06-08T04:15:06.510Z,94.50
2019-06-08T04:20:14.348Z,94.40
2019-06-08T04:25:22.230Z,94.20
2019-06-08T04:30:29.733Z,94.50
2019-06-08T04:35:38.202Z,94.00
2019-06-08T04:40:48.509Z,94.50
2019-06-08T04:45:57.010Z,93.80
2019-06-08T04:51:12.068Z,92.80
2019-06-08T04:56:12.559Z,92.50
2019-06-08T05:01:19.850Z,91.70
2019-06-08T05:06:29.404Z,91.60
2019-06-08T05:11:36.833Z,92.30
2019-06-08T05:16:45.319Z,91.50
2019-06-08T05:21:56.300Z,91.60
2019-06-08T05:27:05.185Z,91.40
2019-06-08T05:32:13.509Z,92.00
2019-06-08T05:37:21.062Z,91.90
2019-06-08T05:42:29.546Z,92.00
2019-06-08T05:47:42.129Z,91.70
2019-06-08T05:52:50.297Z,90.70
2019-06-08T05:57:57.819Z,90.90
2019-06-08T06:03:07.664Z,90.50
2019-06-08T06:08:18.935Z,89.80
2019-06-08T06:13:24.897Z,90.20
2019-06-08T06:18:32.354Z,89.50
2019-06-08T06:23:41.044Z,90.10
2019-06-08T06:28:49.591Z,90.00
2019-06-08T06:34:00.322Z,89.80
2019-06-08T06:39:10.249Z,87.90
2019-06-08T06:44:17.666Z,87.50
2019-06-08T06:49:25.006Z,87.70
2019-06-08T06:54:36.560Z,87.90
2019-06-08T06:59:45.546Z,87.70
2019-06-08T07:04:52.330Z,87.90
2019-06-08T07:09:59.996Z,84.50
2019-06-08T07:15:09.410Z,85.40
2019-06-08T07:20:17.082Z,85.20
2019-06-08T07:25:27.239Z,84.30
2019-06-08T07:30:34.767Z,84.90
2019-06-08T07:35:46.829Z,84.70
2019-06-08T07:40:54.177Z,85.00
2019-06-08T07:46:03.825Z,86.00
2019-06-08T07:51:11.194Z,84.60
2019-06-08T07:56:19.722Z,83.60
2019-06-08T08:01:35.684Z,84.00
2019-06-08T08:06:35.563Z,83.40
2019-06-08T08:11:42.886Z,82.60
2019-06-08T08:16:50.941Z,83.40
2019-06-08T08:22:16.318Z,83.10
2019-06-08T08:27:11.731Z,83.20
2019-06-08T08:37:38.061Z,81.70
2019-06-08T08:42:50.606Z,82.20
2019-06-08T08:48:17.156Z,82.00
2019-06-08T08:53:08.954Z,81.70
2019-06-08T08:58:18.519Z,82.00
2019-06-08T09:03:35.101Z,81.50
2019-06-08T09:08:43.544Z,81.50
2019-06-08T09:13:51.944Z,81.20
2019-06-08T09:19:20.881Z,81.40
2019-06-08T09:24:29.706Z,80.50
2019-06-08T09:29:35.462Z,81.30
2019-06-08T09:34:42.854Z,80.90
2019-06-08T09:39:50.374Z,81.00
2019-06-08T09:45:00.387Z,80.10
2019-06-08T09:50:09.423Z,79.40
2019-06-08T09:55:18.337Z,79.50
2019-06-08T10:00:28.911Z,81.00
2019-06-08T10:05:34.556Z,82.30
2019-06-08T10:10:44.256Z,81.60
2019-06-08T10:15:52.116Z,81.30
2019-06-08T10:21:01.318Z,81.70
2019-06-08T10:26:10.348Z,81.90
2019-06-08T10:31:17.697Z,82.40
2019-06-08T10:36:28.339Z,83.40
2019-06-08T10:41:38.785Z,83.20
2019-06-08T10:46:44.875Z,83.10
2019-06-08T10:52:01.669Z,84.40
2019-06-08T10:57:07.580Z,84.30
2019-06-08T11:02:14.764Z,85.10
2019-06-08T11:07:23.561Z,85.10
2019-06-08T11:12:38.974Z,85.30
2019-06-08T11:17:41.371Z,85.70
2019-06-08T11:22:50.067Z,85.40
2019-06-08T11:27:59.910Z,85.80
2019-06-08T11:33:09.368Z,85.70
2019-06-08T11:38:20.300Z,86.20
2019-06-08T11:43:30.089Z,86.80
2019-06-08T11:48:41.279Z,87.20
2019-06-08T11:53:49.918Z,87.30
2019-06-08T11:59:01.075Z,88.10
2019-06-08T12:04:09.848Z,88.50
2019-06-08T12:09:18.844Z,89.00
2019-06-08T12:14:26.423Z,89.40
2019-06-08T12:19:37.773Z,89.80
2019-06-08T12:24:45.031Z,90.20
2019-06-08T12:29:52.827Z,90.40
2019-06-08T12:35:00.312Z,90.50
2019-06-08T12:40:11.516Z,90.50
2019-06-08T12:45:19.060Z,90.30
2019-06-08T12:50:28.174Z,90.10
2019-06-08T12:55:37.553Z,90.20
2019-06-08T13:00:48.054Z,90.20
2019-06-08T13:05:54.464Z,90.10
2019-06-08T13:11:02.837Z,90.00
2019-06-08T13:16:12.528Z,90.00
2019-06-08T13:21:32.041Z,89.90
2019-06-08T13:26:31.117Z,89.70
2019-06-08T13:31:38.526Z,89.70
2019-06-08T13:42:02.710Z,90.20
2019-06-08T13:47:11.116Z,90.10
2019-06-08T13:52:20.900Z,90.00
2019-06-08T13:57:27.224Z,90.30
2019-06-08T14:02:34.459Z,90.40
2019-06-08T14:07:41.721Z,90.60
2019-06-08T14:12:49.081Z,90.90
2019-06-08T14:17:58.539Z,91.10
2019-06-08T14:23:08.951Z,91.20
2019-06-08T14:28:19.280Z,91.50
2019-06-08T14:33:29.151Z,91.90
2019-06-08T14:38:42.111Z,92.10
2019-06-08T14:43:50.767Z,92.20
2019-06-08T14:48:58.608Z,92.30
2019-06-08T14:54:07.673Z,92.30
2019-06-08T14:59:14.903Z,92.60
2019-06-08T15:04:23.905Z,92.80
2019-06-08T15:09:30.783Z,93.00
2019-06-08T15:14:42.014Z,93.30
2019-06-08T15:19:48.256Z,93.60
2019-06-08T15:24:58.035Z,93.70
2019-06-08T15:30:06.839Z,93.90
2019-06-08T15:35:14.417Z,94.00
2019-06-08T15:40:28.380Z,94.10
2019-06-08T15:45:35.362Z,94.30
2019-06-08T15:50:41.201Z,94.30
2019-06-08T15:55:52.014Z,94.50
2019-06-08T16:01:01.745Z,94.50
2019-06-08T16:06:10.380Z,94.90
2019-06-08T16:11:17.758Z,95.20
2019-06-08T16:16:29.092Z,95.20
2019-06-08T16:21:38.018Z,95.20
2019-06-08T16:26:53.399Z,95.40
2019-06-08T16:31:54.869Z,94.70
2019-06-08T16:37:02.368Z,94.50
2019-06-08T16:42:12.782Z,94.40
2019-06-08T16:47:24.633Z,94.30
2019-06-08T16:52:32.508Z,94.20
2019-06-08T16:57:44.444Z,94.30
2019-06-08T17:02:52.987Z,94.30
2019-06-08T17:08:00.394Z,94.20
2019-06-08T17:13:11.602Z,94.10
2019-06-08T17:18:21.177Z,94.10
2019-06-08T17:23:30.610Z,94.10
2019-06-08T17:28:50.883Z,94.10
2019-06-08T17:33:59.440Z,93.70
2019-06-08T17:39:08.066Z,93.60
2019-06-08T17:44:15.919Z,93.70
2019-06-08T17:49:23.675Z,93.60
2019-06-08T17:54:32.590Z,93.80
2019-06-08T17:59:41.639Z,93.80
2019-06-08T18:04:49.857Z,94.00
2019-06-08T18:09:57.716Z,94.00
2019-06-08T18:15:07.652Z,94.10
2019-06-08T18:20:17.853Z,94.20
2019-06-08T18:25:27.869Z,94.20
2019-06-08T18:30:39.708Z,94.40
2019-06-08T18:35:49.037Z,94.40
2019-06-08T18:40:57.383Z,94.30
2019-06-08T18:46:06.976Z,94.40
2019-06-08T18:51:17.477Z,94.50
2019-06-08T18:56:27.607Z,94.60
2019-06-08T19:01:37.896Z,94.70
2019-06-08T19:06:48.383Z,94.70
2019-06-08T19:11:57.308Z,94.80
2019-06-08T19:17:04.647Z,94.90
2019-06-08T19:22:12.945Z,95.00
2019-06-08T19:27:21.252Z,95.20
2019-06-08T19:32:29.452Z,95.30
2019-06-08T19:37:37.704Z,95.30
2019-06-08T19:42:53.498Z,95.40
2019-06-08T19:47:57.570Z,95.40
2019-06-08T19:53:03.994Z,95.40
2019-06-08T19:58:11.685Z,95.40
2019-06-08T20:03:19.464Z,95.60
2019-06-08T20:08:29.101Z,95.70
2019-06-08T20:13:37.558Z,95.80
2019-06-08T20:18:46.275Z,95.80
2019-06-08T20:29:20.025Z,96.30
2019-06-08T20:34:27.125Z,96.50
2019-06-08T20:39:34.791Z,96.50
2019-06-08T20:44:42.350Z,96.50
2019-06-08T20:49:51.859Z,96.70
2019-06-08T20:54:59.139Z,96.90
2019-06-08T21:00:11.685Z,96.90
2019-06-08T21:05:18.217Z,97.10
2019-06-08T21:10:28.164Z,97.20
2019-06-08T21:15:38.013Z,97.30
2019-06-08T21:20:47.162Z,97.30
2019-06-08T21:25:59.284Z,97.40
2019-06-08T21:31:04.521Z,97.60
2019-06-08T21:36:12.128Z,97.60
2019-06-08T21:41:21.695Z,97.70
2019-06-08T21:46:30.491Z,97.70
2019-06-08T21:51:39.656Z,97.70
2019-06-08T21:56:48.985Z,97.80
2019-06-08T22:02:18.133Z,97.90
2019-06-08T22:12:52.386Z,98.10
2019-06-08T22:18:01.504Z,98.10
2019-06-08T22:23:10.086Z,98.10
2019-06-08T22:28:18.677Z,98.20
2019-06-08T22:33:28.014Z,98.30
2019-06-08T22:38:37.232Z,98.20
2019-06-08T22:43:44.401Z,98.30
2019-06-08T22:48:53.169Z,98.20
2019-06-08T22:54:02.754Z,98.40
2019-06-08T22:59:10.595Z,98.50
2019-06-08T23:04:18.771Z,98.50
2019-06-08T23:09:28.264Z,98.50
2019-06-08T23:14:37.661Z,98.60
2019-06-08T23:19:48.062Z,98.60
2019-06-08T23:24:55.562Z,98.70
2019-06-08T23:30:03.813Z,98.70
2019-06-08T23:35:13.387Z,98.70
2019-06-08T23:40:21.660Z,98.50
2019-06-08T23:45:28.976Z,98.60
2019-06-08T23:50:37.956Z,98.60
2019-06-08T23:55:47.719Z,98.60
